CheckWX is a tool to help pilots better visualize weather data.  It is not intended as a substitute for an official pre-flight weather briefing.

18:33:41 UTC

2G9 METAR
Somerset County Airport
Somerset, Pennsylvania, USA
Current

19 mins ago

K2G9 221815Z AUTO 00000KT 10SM CLR 01/M05 A3032 RMK AO2
Observed
Feb-22 @ 18:15 UTC
Visibility
10 SM
Flight Rules
VFR
Cloud Levels
  • Clear skies
Temperature
C / 34°F
Dewpoint
-5°C / 23°F
Humidity
65%
Altimeter
30.32" Hg
Pressure
1026.72 hPa
Previous

39 mins ago

K2G9 221755Z AUTO 00000KT 10SM CLR 01/M05 A3033 RMK AO2
Observed
Feb-22 @ 17:55 UTC
Visibility
10 SM
Flight Rules
VFR
Cloud Levels
  • Clear skies
Temperature
C / 34°F
Dewpoint
-5°C / 23°F
Humidity
65%
Altimeter
30.33" Hg
Pressure
1027.12 hPa
Previous

59 mins ago

K2G9 221735Z AUTO 00000KT 10SM CLR 00/M05 A3033 RMK AO2
Observed
Feb-22 @ 17:35 UTC
Visibility
10 SM
Flight Rules
VFR
Cloud Levels
  • Clear skies
Temperature
C / 32°F
Dewpoint
-5°C / 23°F
Humidity
69%
Altimeter
30.33" Hg
Pressure
1027.12 hPa